Time;durP1;ratioP1;P1;durP2;ratioP2;P2;SDS_P1;SDS_P2;PMS_P1;PMS_P2;Temp;Humidity;BMP_temperature;BMP_pressure;BME280_temperature;BME280_humidity;BME280_pressure;Samples;Min_cycle;Max_cycle;Signal;HPM_P1;HPM_P2
2020/12/27 00:01:31;;;;;;;4.83;4.27;;;3.80;57.00;;;;;;4898158;29;20468;-77
2020/12/27 00:03:58;;;;;;;4.70;4.23;;;3.80;56.90;;;;;;4898348;29;20516;-78
2020/12/27 00:06:28;;;;;;;5.53;4.27;;;3.80;57.00;;;;;;4898932;29;20457;-77
2020/12/27 00:08:55;;;;;;;5.47;4.70;;;3.80;57.00;;;;;;4899348;29;20466;-77
2020/12/27 00:11:23;;;;;;;5.87;5.30;;;3.70;56.80;;;;;;4899064;29;20512;-78
2020/12/27 00:13:57;;;;;;;6.57;5.30;;;3.70;56.90;;;;;;4899450;29;20460;-77
2020/12/27 00:16:26;;;;;;;4.57;4.13;;;3.80;57.00;;;;;;4899453;29;20469;-77
2020/12/27 00:19:04;;;;;;;8.17;5.00;;;3.80;57.00;;;;;;4898838;29;20456;-77
2020/12/27 00:21:33;;;;;;;5.90;5.50;;;3.80;57.00;;;;;;4899229;29;20461;-79
2020/12/27 00:23:59;;;;;;;5.67;4.07;;;3.80;57.10;;;;;;4899537;29;20459;-77
2020/12/27 00:26:29;;;;;;;5.87;4.33;;;3.70;57.00;;;;;;4899004;29;20465;-77
2020/12/27 00:28:55;;;;;;;5.50;4.30;;;3.80;57.00;;;;;;4898971;29;20521;-78
2020/12/27 00:31:22;;;;;;;5.60;5.10;;;3.80;57.10;;;;;;4897334;29;20464;-78
2020/12/27 00:33:49;;;;;;;6.47;4.80;;;3.80;56.90;;;;;;4898731;29;20985;-77
2020/12/27 00:36:20;;;;;;;6.10;4.47;;;3.70;56.90;;;;;;4898583;29;20467;-77
2020/12/27 00:38:46;;;;;;;5.30;4.80;;;3.70;56.90;;;;;;4898447;29;20467;-78
2020/12/27 00:41:19;;;;;;;7.07;5.13;;;3.70;57.00;;;;;;4898285;29;20461;-77
2020/12/27 00:43:47;;;;;;;13.40;6.47;;;3.70;57.00;;;;;;4898791;29;20509;-77
2020/12/27 00:46:14;;;;;;;9.73;5.93;;;3.70;57.00;;;;;;4898627;29;20555;-77
2020/12/27 00:48:40;;;;;;;5.20;4.70;;;3.70;56.90;;;;;;4898007;29;20475;-77
2020/12/27 00:51:08;;;;;;;4.03;3.57;;;3.70;56.90;;;;;;4898031;29;20457;-78
2020/12/27 00:53:35;;;;;;;4.80;4.33;;;3.70;56.90;;;;;;4898660;29;20467;-77
2020/12/27 00:56:02;;;;;;;4.93;4.43;;;3.70;56.80;;;;;;4897137;29;20488;-78
2020/12/27 00:58:29;;;;;;;4.00;3.53;;;3.70;56.90;;;;;;4898521;29;20453;-77
2020/12/27 01:01:01;;;;;;;5.53;5.03;;;3.80;56.70;;;;;;4895292;29;20477;-77
2020/12/27 01:03:27;;;;;;;7.40;4.40;;;3.70;56.30;;;;;;4898389;29;20525;-77
2020/12/27 01:05:54;;;;;;;4.90;3.80;;;3.70;56.40;;;;;;4898503;29;20456;-78
2020/12/27 01:08:21;;;;;;;10.47;3.90;;;3.70;56.40;;;;;;4898215;29;20472;-78
2020/12/27 01:10:48;;;;;;;4.90;4.23;;;3.70;56.70;;;;;;4898454;29;20458;-78
2020/12/27 01:13:14;;;;;;;4.57;4.17;;;3.70;56.60;;;;;;4897918;29;20511;-78
2020/12/27 01:15:41;;;;;;;9.00;4.40;;;3.70;56.40;;;;;;4898135;29;20843;-77
2020/12/27 01:18:08;;;;;;;4.97;4.37;;;3.70;56.50;;;;;;4898365;29;20461;-77
2020/12/27 01:20:34;;;;;;;5.53;5.03;;;3.70;56.30;;;;;;4897661;29;20868;-77
2020/12/27 01:23:03;;;;;;;5.63;5.13;;;3.70;56.50;;;;;;4895966;29;20968;-78
2020/12/27 01:25:30;;;;;;;6.23;4.37;;;3.70;56.50;;;;;;4898019;29;20468;-77
2020/12/27 01:27:57;;;;;;;3.63;3.03;;;3.70;56.30;;;;;;4897911;29;20962;-77
2020/12/27 01:30:23;;;;;;;6.27;4.87;;;3.70;56.20;;;;;;4894709;29;20470;-78
2020/12/27 01:32:50;;;;;;;6.17;4.40;;;3.70;56.20;;;;;;4897921;29;20463;-78
2020/12/27 01:35:17;;;;;;;5.43;4.67;;;3.70;56.30;;;;;;4898032;29;20468;-76
2020/12/27 01:37:44;;;;;;;5.27;4.20;;;3.70;56.40;;;;;;4898037;29;20459;-77
2020/12/27 01:40:10;;;;;;;5.23;4.60;;;3.80;56.70;;;;;;4897900;29;20952;-77
2020/12/27 01:42:38;;;;;;;4.70;3.63;;;3.80;56.70;;;;;;4892108;29;20506;-77
2020/12/27 01:45:05;;;;;;;4.93;4.43;;;3.80;56.60;;;;;;4897375;29;20479;-77
2020/12/27 01:47:34;;;;;;;5.30;4.80;;;3.80;56.50;;;;;;4898099;29;20822;-77
2020/12/27 01:50:06;;;;;;;4.47;4.07;;;3.80;56.70;;;;;;4896113;29;20519;-77
2020/12/27 01:52:33;;;;;;;4.47;4.07;;;3.80;56.80;;;;;;4897631;29;20466;-78
2020/12/27 01:54:59;;;;;;;5.43;4.87;;;3.80;56.80;;;;;;4897011;29;20462;-77
2020/12/27 01:57:58;;;;;;;4.57;3.97;;;3.80;56.80;;;;;;4897583;29;20459;-78
2020/12/27 02:00:27;;;;;;;5.77;4.30;;;3.80;56.80;;;;;;4897898;29;20480;-77
2020/12/27 02:02:53;;;;;;;5.30;4.80;;;3.80;56.70;;;;;;4897307;29;20575;-77
2020/12/27 02:05:20;;;;;;;5.70;5.13;;;3.80;56.80;;;;;;4896821;29;20956;-77
2020/12/27 02:07:46;;;;;;;4.97;4.20;;;3.80;56.80;;;;;;4878877;29;20481;-77
2020/12/27 02:10:13;;;;;;;4.77;4.37;;;3.80;57.00;;;;;;4886088;29;20454;-76
2020/12/27 02:12:39;;;;;;;7.73;4.40;;;3.70;56.90;;;;;;4896908;29;20511;-75
2020/12/27 02:15:08;;;;;;;5.87;4.10;;;3.70;56.80;;;;;;4895704;29;20514;-76
2020/12/27 02:17:34;;;;;;;5.30;4.00;;;3.70;56.90;;;;;;4897054;29;20465;-76
2020/12/27 02:20:01;;;;;;;6.20;4.40;;;3.70;57.00;;;;;;4897232;29;21035;-76
2020/12/27 02:22:28;;;;;;;6.00;4.30;;;3.70;57.00;;;;;;4897386;29;20498;-76
2020/12/27 02:24:55;;;;;;;4.97;3.80;;;3.70;57.00;;;;;;4897151;29;20470;-76
2020/12/27 02:27:22;;;;;;;7.50;5.00;;;3.70;56.90;;;;;;4896995;29;20457;-76
2020/12/27 02:29:48;;;;;;;6.97;4.30;;;3.70;57.00;;;;;;4897524;29;20470;-76
2020/12/27 02:32:15;;;;;;;4.37;3.97;;;3.70;57.00;;;;;;4897301;29;20475;-76
2020/12/27 02:34:41;;;;;;;4.90;3.93;;;3.70;56.80;;;;;;4896901;29;20470;-76
2020/12/27 02:37:08;;;;;;;4.13;3.73;;;3.60;56.70;;;;;;4896545;29;20945;-76
2020/12/27 02:39:34;;;;;;;3.47;3.17;;;3.60;56.50;;;;;;4897040;29;20514;-77
2020/12/27 02:42:02;;;;;;;5.07;4.57;;;3.60;56.50;;;;;;4895455;29;20452;-76
2020/12/27 02:46:54;;;;;;;4.60;4.20;;;3.60;56.40;;;;;;4896877;29;20543;-77
2020/12/27 02:49:21;;;;;;;7.70;5.00;;;3.60;56.40;;;;;;4897293;29;20463;-77
2020/12/27 02:51:48;;;;;;;4.50;3.53;;;3.60;56.40;;;;;;4896394;29;20460;-77
2020/12/27 02:54:14;;;;;;;3.83;3.53;;;3.60;56.30;;;;;;4896723;29;20453;-76
2020/12/27 02:56:41;;;;;;;5.40;4.20;;;3.60;56.20;;;;;;4896992;29;20464;-76
2020/12/27 02:59:08;;;;;;;5.30;3.93;;;3.60;56.00;;;;;;4896832;29;21022;-78
2020/12/27 03:01:34;;;;;;;4.60;4.13;;;3.60;56.10;;;;;;4897501;29;20470;-76
2020/12/27 03:04:01;;;;;;;4.20;3.80;;;3.70;56.00;;;;;;4896826;29;20522;-76
2020/12/27 03:06:27;;;;;;;9.50;3.33;;;3.70;55.90;;;;;;4896149;29;20532;-76
2020/12/27 03:08:55;;;;;;;8.30;4.00;;;3.70;55.70;;;;;;4895221;29;20457;-76
2020/12/27 03:11:22;;;;;;;5.17;3.60;;;3.70;55.60;;;;;;4898132;29;21062;-77
2020/12/27 03:13:48;;;;;;;5.60;3.93;;;3.70;55.40;;;;;;4900537;29;20502;-77
2020/12/27 03:16:16;;;;;;;5.83;4.30;;;3.70;55.30;;;;;;4900537;29;20455;-77
2020/12/27 03:18:43;;;;;;;5.30;3.93;;;3.70;55.10;;;;;;4900232;29;20487;-76
2020/12/27 03:21:09;;;;;;;3.13;2.87;;;3.70;55.00;;;;;;4899050;29;20982;-76
2020/12/27 03:23:35;;;;;;;5.03;3.97;;;3.60;54.70;;;;;;4900509;29;20502;-76
2020/12/27 03:26:02;;;;;;;4.60;3.57;;;3.50;54.50;;;;;;4900067;29;20864;-76
2020/12/27 03:28:29;;;;;;;4.03;3.73;;;3.50;54.90;;;;;;4899923;29;20459;-77
2020/12/27 03:30:55;;;;;;;5.90;4.47;;;3.50;55.00;;;;;;4900400;29;20485;-77
2020/12/27 03:33:23;;;;;;;5.97;5.37;;;3.50;55.30;;;;;;4900212;29;21069;-77
2020/12/27 03:35:49;;;;;;;5.53;3.67;;;3.60;55.40;;;;;;4898472;29;20471;-79
2020/12/27 03:38:16;;;;;;;4.20;3.80;;;3.60;55.40;;;;;;4899868;29;20467;-77
2020/12/27 03:40:42;;;;;;;3.30;3.00;;;3.60;55.10;;;;;;4900001;29;21018;-77
2020/12/27 03:43:09;;;;;;;5.60;3.90;;;3.60;55.10;;;;;;4899961;29;20491;-77
2020/12/27 03:45:35;;;;;;;5.43;4.40;;;3.60;55.20;;;;;;4899788;29;21048;-77
2020/12/27 03:48:02;;;;;;;8.90;5.80;;;3.60;55.00;;;;;;4899519;29;20463;-77
2020/12/27 03:50:29;;;;;;;9.20;4.37;;;3.60;55.10;;;;;;4899612;29;20474;-77
2020/12/27 03:52:56;;;;;;;5.43;4.53;;;3.60;55.10;;;;;;4899648;29;20452;-76
2020/12/27 03:55:22;;;;;;;4.90;3.87;;;3.50;55.00;;;;;;4898946;29;20459;-77
2020/12/27 03:57:49;;;;;;;5.07;4.37;;;3.50;55.60;;;;;;4899682;29;20458;-76
2020/12/27 04:00:15;;;;;;;5.57;4.30;;;3.50;55.10;;;;;;4899502;29;20452;-77
2020/12/27 04:02:42;;;;;;;5.27;4.30;;;3.50;55.20;;;;;;4897614;29;20494;-77
2020/12/27 04:05:08;;;;;;;4.83;4.13;;;3.50;55.10;;;;;;4899691;29;20475;-77
2020/12/27 04:07:36;;;;;;;4.13;3.73;;;3.50;55.30;;;;;;4899130;29;20952;-76
2020/12/27 04:10:03;;;;;;;6.13;4.57;;;3.40;55.10;;;;;;4899204;29;20485;-77
2020/12/27 04:12:31;;;;;;;4.77;4.03;;;3.40;55.10;;;;;;4899013;29;20491;-76
2020/12/27 04:14:58;;;;;;;7.23;3.60;;;3.40;55.20;;;;;;4899250;29;20471;-77
2020/12/27 04:17:24;;;;;;;6.23;5.33;;;3.40;55.20;;;;;;4898945;29;20535;-77
2020/12/27 04:19:50;;;;;;;4.53;3.97;;;3.40;55.10;;;;;;4899383;29;20542;-77
2020/12/27 04:22:17;;;;;;;6.33;4.23;;;3.40;55.00;;;;;;4897093;29;20487;-76
2020/12/27 04:24:45;;;;;;;4.53;3.03;;;3.40;55.20;;;;;;4897266;29;20808;-77
2020/12/27 04:27:11;;;;;;;4.30;3.90;;;3.30;55.10;;;;;;4898968;29;20490;-75
2020/12/27 04:29:38;;;;;;;4.60;4.17;;;3.30;55.20;;;;;;4896821;29;20470;-76
2020/12/27 04:32:04;;;;;;;5.60;3.87;;;3.30;55.20;;;;;;4898754;29;20944;-76
2020/12/27 04:34:31;;;;;;;3.20;2.90;;;3.30;55.20;;;;;;4898396;29;20463;-77
2020/12/27 04:36:58;;;;;;;7.37;5.00;;;3.20;55.00;;;;;;4898478;29;20553;-79
2020/12/27 04:39:24;;;;;;;3.73;3.40;;;3.10;55.40;;;;;;4898744;29;20467;-76
2020/12/27 04:41:51;;;;;;;7.60;3.70;;;3.10;55.40;;;;;;4898566;29;20470;-78
2020/12/27 04:44:18;;;;;;;4.77;4.37;;;3.10;55.60;;;;;;4898123;29;20858;-76
2020/12/27 04:46:46;;;;;;;5.87;4.40;;;3.10;55.70;;;;;;4898503;29;20871;-77
2020/12/27 04:49:14;;;;;;;6.73;5.10;;;3.10;55.80;;;;;;4898534;29;20568;-76
2020/12/27 04:51:42;;;;;;;3.57;3.27;;;3.10;55.60;;;;;;4897943;29;20470;-76
2020/12/27 04:54:10;;;;;;;4.60;4.20;;;3.20;55.60;;;;;;4896468;29;20849;-77
2020/12/27 04:56:41;;;;;;;6.10;4.47;;;3.20;55.60;;;;;;4898648;29;20477;-77
2020/12/27 04:59:09;;;;;;;5.70;4.60;;;3.20;55.50;;;;;;4898221;29;20454;-77
2020/12/27 05:01:38;;;;;;;4.50;4.10;;;3.20;55.60;;;;;;4898023;29;20467;-78
2020/12/27 05:04:05;;;;;;;4.93;4.00;;;3.20;55.60;;;;;;4898132;29;20495;-78
2020/12/27 05:06:32;;;;;;;6.37;4.57;;;3.20;55.40;;;;;;4898093;29;20522;-78
2020/12/27 05:08:59;;;;;;;5.63;4.57;;;3.20;55.40;;;;;;4898445;29;20463;-78
2020/12/27 05:11:29;;;;;;;5.07;4.30;;;3.20;55.40;;;;;;4897625;29;20467;-79
2020/12/27 05:13:56;;;;;;;4.97;3.03;;;3.20;55.60;;;;;;4898135;29;20483;-76
2020/12/27 05:16:24;;;;;;;5.13;4.63;;;3.20;55.50;;;;;;4898398;29;20462;-76
2020/12/27 05:18:51;;;;;;;6.80;4.47;;;3.20;55.50;;;;;;4898163;29;20467;-77
2020/12/27 05:21:19;;;;;;;4.67;3.87;;;3.20;55.40;;;;;;4895901;29;20466;-77
2020/12/27 05:23:46;;;;;;;6.20;4.40;;;3.20;55.60;;;;;;4898049;29;20578;-77
2020/12/27 05:26:13;;;;;;;4.13;3.40;;;3.20;55.60;;;;;;4896681;29;20459;-76
2020/12/27 05:28:40;;;;;;;4.70;3.90;;;3.20;55.70;;;;;;4897975;29;20478;-77
2020/12/27 05:31:13;;;;;;;7.90;5.00;;;3.30;56.00;;;;;;4898312;29;20453;-77
2020/12/27 05:33:42;;;;;;;6.37;4.63;;;3.30;55.80;;;;;;4897675;29;20470;-78
2020/12/27 05:36:11;;;;;;;5.37;3.70;;;3.30;55.60;;;;;;4897698;29;20468;-78
2020/12/27 05:38:37;;;;;;;4.10;3.67;;;3.20;55.70;;;;;;4897799;29;20466;-78
2020/12/27 05:41:05;;;;;;;5.30;4.30;;;3.20;55.90;;;;;;4897461;29;20526;-78
2020/12/27 05:43:31;;;;;;;4.87;4.33;;;3.20;56.00;;;;;;4897020;29;20491;-77
2020/12/27 05:45:58;;;;;;;6.30;4.33;;;3.20;56.00;;;;;;4897880;29;20467;-78
2020/12/27 05:48:25;;;;;;;6.17;4.10;;;3.20;56.00;;;;;;4896239;29;20470;-78
2020/12/27 05:50:53;;;;;;;5.27;3.40;;;3.20;56.20;;;;;;4897539;29;20467;-78
2020/12/27 05:53:22;;;;;;;8.00;4.57;;;3.10;56.10;;;;;;4896957;29;20459;-78
2020/12/27 05:55:50;;;;;;;5.70;4.00;;;3.10;56.50;;;;;;4897423;29;20467;-78
2020/12/27 05:58:19;;;;;;;6.63;4.33;;;3.10;56.70;;;;;;4897661;29;20527;-77
2020/12/27 06:00:51;;;;;;;4.93;3.60;;;3.10;56.80;;;;;;4897497;29;20459;-78
2020/12/27 06:03:20;;;;;;;4.40;4.10;;;3.10;56.60;;;;;;4898734;29;20525;-78
2020/12/27 06:06:12;;;;;;;9.60;4.87;;;3.10;56.80;;;;;;4897710;29;20515;-78
2020/12/27 06:09:08;;;;;;;5.13;3.97;;;3.10;56.90;;;;;;4896754;29;20486;-78
2020/12/27 06:11:47;;;;;;;5.40;3.97;;;3.10;56.90;;;;;;4896998;29;20530;-77
2020/12/27 06:14:41;;;;;;;5.10;4.07;;;3.10;56.80;;;;;;4884552;29;20464;-78
2020/12/27 06:17:13;;;;;;;3.77;3.47;;;3.20;56.70;;;;;;4897060;29;20520;-78
2020/12/27 06:19:59;;;;;;;7.60;4.57;;;3.10;56.80;;;;;;4896122;29;20463;-76
2020/12/27 06:22:29;;;;;;;4.37;3.97;;;3.10;56.90;;;;;;4896817;29;20455;-77
2020/12/27 06:24:59;;;;;;;4.20;3.80;;;3.10;56.80;;;;;;4897385;29;20470;-76
2020/12/27 06:27:28;;;;;;;6.33;3.80;;;3.20;57.00;;;;;;4897547;29;20522;-78
2020/12/27 06:30:01;;;;;;;12.23;4.57;;;3.20;57.00;;;;;;4896146;29;20489;-76
2020/12/27 06:32:33;;;;;;;5.40;3.90;;;3.30;56.80;;;;;;4896870;29;20854;-77
2020/12/27 06:35:04;;;;;;;6.77;4.40;;;3.20;56.70;;;;;;4896708;29;20463;-77
2020/12/27 06:37:43;;;;;;;5.00;4.47;;;3.20;56.80;;;;;;4897071;29;20470;-77
2020/12/27 06:40:11;;;;;;;5.97;4.37;;;3.20;57.00;;;;;;4895979;29;20589;-76
2020/12/27 06:42:38;;;;;;;4.80;3.87;;;3.10;56.80;;;;;;4896128;29;20482;-76
2020/12/27 06:45:06;;;;;;;4.43;3.50;;;3.10;56.90;;;;;;4896750;29;20508;-76
2020/12/27 06:47:48;;;;;;;5.30;3.50;;;3.10;57.00;;;;;;4900327;29;20460;-76
2020/12/27 06:50:16;;;;;;;5.23;3.60;;;3.10;57.00;;;;;;4900060;29;20494;-77
2020/12/27 06:52:44;;;;;;;5.13;3.77;;;3.10;57.00;;;;;;4899903;29;20474;-77
2020/12/27 06:55:11;;;;;;;4.10;3.70;;;3.10;57.20;;;;;;4901013;29;20889;-76
2020/12/27 06:57:43;;;;;;;4.10;3.80;;;3.10;57.50;;;;;;4900282;29;20472;-76
2020/12/27 07:00:23;;;;;;;6.00;3.80;;;3.10;57.30;;;;;;4900981;29;20466;-76
2020/12/27 07:03:08;;;;;;;4.30;3.90;;;3.10;57.30;;;;;;4899219;29;20491;-77
2020/12/27 07:05:36;;;;;;;6.10;4.63;;;3.10;57.30;;;;;;4900422;29;20466;-76
2020/12/27 07:08:06;;;;;;;3.87;3.53;;;3.10;57.30;;;;;;4898853;29;20459;-77
2020/12/27 07:10:33;;;;;;;4.40;3.97;;;3.20;57.40;;;;;;4901041;29;20463;-77
2020/12/27 07:13:05;;;;;;;6.43;4.43;;;3.20;57.30;;;;;;4900629;29;21011;-77
2020/12/27 07:15:32;;;;;;;6.93;3.70;;;3.20;57.10;;;;;;4900734;29;20479;-77
2020/12/27 07:18:06;;;;;;;3.87;3.50;;;3.20;57.40;;;;;;4900420;29;21271;-77
2020/12/27 07:20:33;;;;;;;3.30;3.00;;;3.20;57.00;;;;;;4900519;29;20544;-77
2020/12/27 07:23:00;;;;;;;6.80;4.37;;;3.10;56.90;;;;;;4900306;29;20510;-77
2020/12/27 07:25:30;;;;;;;4.90;3.57;;;3.10;57.20;;;;;;4900384;29;20459;-78
2020/12/27 07:27:58;;;;;;;4.50;3.93;;;3.20;57.40;;;;;;4900631;29;20557;-78
2020/12/27 07:30:27;;;;;;;4.50;4.10;;;3.20;57.30;;;;;;4900537;29;20499;-78
2020/12/27 07:32:54;;;;;;;3.47;3.17;;;3.20;57.20;;;;;;4900549;29;20535;-77
2020/12/27 07:35:24;;;;;;;5.17;4.10;;;3.20;57.10;;;;;;4899179;29;20471;-77
2020/12/27 07:38:01;;;;;;;5.00;4.60;;;3.20;57.10;;;;;;4900290;29;20486;-77
2020/12/27 07:40:32;;;;;;;4.40;3.57;;;3.30;57.20;;;;;;4900289;29;20498;-77
2020/12/27 07:42:59;;;;;;;6.30;3.50;;;3.30;57.00;;;;;;4899257;29;20991;-76
2020/12/27 07:45:26;;;;;;;6.53;4.03;;;3.20;56.80;;;;;;4900030;29;20486;-77
2020/12/27 07:47:53;;;;;;;4.53;4.13;;;3.20;57.10;;;;;;4900134;29;20459;-78
2020/12/27 07:50:20;;;;;;;4.33;3.73;;;3.20;57.20;;;;;;4899424;29;20530;-77
2020/12/27 07:52:52;;;;;;;3.80;3.17;;;3.30;57.10;;;;;;4899394;29;20464;-77
2020/12/27 07:55:23;;;;;;;5.40;4.80;;;3.30;57.10;;;;;;4899879;29;20518;-77
2020/12/27 07:57:51;;;;;;;3.50;3.20;;;3.30;56.80;;;;;;4899387;29;20460;-78
2020/12/27 08:00:22;;;;;;;5.07;4.57;;;3.30;56.90;;;;;;4898097;29;20830;-78
2020/12/27 08:02:50;;;;;;;4.60;3.93;;;3.40;56.90;;;;;;4899478;29;20514;-77
2020/12/27 08:05:17;;;;;;;4.87;4.40;;;3.40;56.80;;;;;;4899532;29;20886;-77
2020/12/27 08:07:44;;;;;;;4.20;3.60;;;3.40;56.80;;;;;;4899108;29;20582;-77
2020/12/27 08:10:18;;;;;;;4.57;4.13;;;3.40;56.80;;;;;;4899459;29;20879;-76
2020/12/27 08:12:59;;;;;;;5.30;4.50;;;3.40;56.90;;;;;;4899459;29;20464;-77
2020/12/27 08:15:27;;;;;;;4.70;4.23;;;3.40;57.00;;;;;;4899371;29;20460;-78
2020/12/27 08:17:59;;;;;;;7.03;3.80;;;3.50;57.10;;;;;;4899631;29;20515;-76
2020/12/27 08:20:28;;;;;;;5.43;3.97;;;3.50;56.80;;;;;;4899166;29;20488;-77
2020/12/27 08:22:59;;;;;;;6.10;3.30;;;3.60;56.50;;;;;;4899187;29;20498;-77
2020/12/27 08:25:27;;;;;;;4.77;3.70;;;3.60;56.50;;;;;;4898710;29;20957;-77
2020/12/27 08:27:54;;;;;;;7.37;4.00;;;3.70;56.40;;;;;;4897343;29;20456;-77
2020/12/27 08:30:22;;;;;;;5.33;4.67;;;3.70;56.40;;;;;;4899299;29;20464;-78
2020/12/27 08:32:48;;;;;;;4.53;4.03;;;3.70;56.10;;;;;;4899126;29;20469;-78
2020/12/27 08:35:25;;;;;;;9.80;4.07;;;3.70;56.00;;;;;;4899211;29;20455;-78
2020/12/27 08:37:56;;;;;;;5.27;4.77;;;3.80;55.80;;;;;;4898743;29;20460;-78
2020/12/27 08:40:28;;;;;;;3.90;3.50;;;3.80;55.70;;;;;;4899114;29;20458;-78
2020/12/27 08:42:59;;;;;;;8.30;5.10;;;3.80;55.80;;;;;;4898645;29;20550;-77
2020/12/27 08:45:27;;;;;;;4.53;4.13;;;3.80;55.70;;;;;;4898830;29;20506;-78
2020/12/27 08:48:06;;;;;;;4.57;3.27;;;3.80;55.90;;;;;;4898789;29;20461;-77
2020/12/27 08:50:36;;;;;;;6.23;3.83;;;3.80;56.30;;;;;;4898442;29;20467;-78
2020/12/27 08:53:05;;;;;;;5.00;4.07;;;3.80;55.80;;;;;;4898494;29;20464;-77
2020/12/27 08:55:32;;;;;;;4.30;4.00;;;3.80;56.00;;;;;;4897833;29;20518;-75
2020/12/27 08:57:59;;;;;;;6.07;4.27;;;3.80;55.90;;;;;;4898685;29;20836;-76
2020/12/27 09:00:31;;;;;;;5.60;4.17;;;3.90;55.80;;;;;;4898548;29;20486;-78
2020/12/27 09:03:00;;;;;;;4.50;4.10;;;3.90;55.60;;;;;;4898613;29;20498;-76
2020/12/27 09:05:27;;;;;;;6.50;4.60;;;3.90;55.60;;;;;;4898440;29;20478;-76
2020/12/27 09:07:54;;;;;;;3.33;3.03;;;4.00;55.70;;;;;;4898409;29;20460;-76
2020/12/27 09:10:22;;;;;;;5.50;5.00;;;4.00;55.40;;;;;;4898185;29;20453;-76
2020/12/27 09:13:00;;;;;;;5.87;5.07;;;4.00;55.30;;;;;;4898611;29;20463;-76
2020/12/27 09:15:29;;;;;;;5.07;4.57;;;4.00;55.10;;;;;;4898456;29;20445;-76
2020/12/27 09:17:58;;;;;;;4.47;3.30;;;4.00;55.30;;;;;;4898303;29;20474;-76
2020/12/27 09:20:25;;;;;;;4.97;3.97;;;4.10;55.10;;;;;;4896615;29;20465;-75
2020/12/27 09:22:52;;;;;;;6.00;3.70;;;4.10;54.90;;;;;;4898063;29;20489;-78
2020/12/27 09:25:20;;;;;;;4.33;3.93;;;4.20;54.90;;;;;;4898327;29;20512;-79
2020/12/27 09:27:48;;;;;;;7.07;4.43;;;4.20;54.70;;;;;;4898402;29;20958;-77
2020/12/27 09:30:16;;;;;;;5.40;4.90;;;4.30;54.40;;;;;;4898204;29;20977;-77
2020/12/27 09:32:44;;;;;;;4.93;4.43;;;4.20;54.00;;;;;;4897403;29;20449;-76
2020/12/27 09:35:18;;;;;;;5.63;4.40;;;4.20;54.00;;;;;;4897752;29;20471;-77
2020/12/27 09:37:44;;;;;;;4.40;3.63;;;4.30;54.10;;;;;;4897842;29;20446;-76
2020/12/27 09:40:11;;;;;;;4.93;3.90;;;4.40;54.30;;;;;;4897728;29;20972;-75
2020/12/27 09:42:41;;;;;;;7.37;5.27;;;4.50;54.30;;;;;;4897783;29;20449;-76
2020/12/27 09:45:21;;;;;;;5.57;5.07;;;4.60;54.20;;;;;;4897223;29;20516;-76
2020/12/27 09:47:57;;;;;;;7.03;4.47;;;4.70;54.30;;;;;;4895894;29;20524;-76
2020/12/27 09:50:29;;;;;;;4.60;4.20;;;4.80;54.30;;;;;;4887876;29;20461;-77
2020/12/27 09:52:55;;;;;;;6.43;4.33;;;4.90;53.90;;;;;;4903357;29;20469;-77
2020/12/27 09:55:23;;;;;;;5.37;4.30;;;5.00;53.50;;;;;;4897819;29;20832;-77
2020/12/27 09:57:49;;;;;;;6.13;4.57;;;5.00;53.40;;;;;;4897404;29;20469;-77
2020/12/27 10:00:16;;;;;;;6.10;4.93;;;5.10;53.40;;;;;;4897716;29;20462;-77
2020/12/27 10:02:42;;;;;;;5.27;4.00;;;5.10;53.40;;;;;;4897677;29;20463;-77
2020/12/27 10:05:10;;;;;;;4.97;4.47;;;5.20;53.10;;;;;;4897623;29;20520;-77
2020/12/27 10:07:37;;;;;;;8.07;4.53;;;5.20;52.70;;;;;;4897652;29;20455;-77
2020/12/27 10:10:05;;;;;;;6.67;4.70;;;5.20;52.80;;;;;;4897446;29;20492;-77
2020/12/27 10:12:31;;;;;;;3.77;3.27;;;5.30;52.90;;;;;;4897160;29;20467;-78
2020/12/27 10:14:58;;;;;;;4.00;3.60;;;5.30;52.40;;;;;;4896120;29;21038;-78
2020/12/27 10:17:25;;;;;;;5.23;4.10;;;5.30;52.30;;;;;;4897321;29;20559;-76
2020/12/27 10:19:51;;;;;;;4.00;3.70;;;5.30;51.70;;;;;;4897314;29;20499;-76
2020/12/27 10:22:19;;;;;;;5.40;4.10;;;5.30;51.90;;;;;;4900693;29;20459;-76
2020/12/27 10:24:46;;;;;;;3.73;3.13;;;5.20;52.00;;;;;;4901353;29;20550;-77
2020/12/27 10:27:12;;;;;;;6.50;4.47;;;5.20;51.60;;;;;;4901487;29;20459;-77
2020/12/27 10:29:40;;;;;;;4.80;4.03;;;5.20;51.60;;;;;;4900620;29;21051;-75
2020/12/27 10:32:08;;;;;;;4.97;4.30;;;5.20;51.70;;;;;;4900491;29;20542;-78
2020/12/27 10:34:35;;;;;;;6.10;4.30;;;5.20;51.60;;;;;;4899606;29;20466;-76
2020/12/27 10:37:03;;;;;;;6.77;4.60;;;5.20;51.70;;;;;;4900591;29;20466;-77
2020/12/27 10:39:32;;;;;;;6.20;4.10;;;5.20;51.90;;;;;;4900408;29;20490;-75
2020/12/27 10:41:59;;;;;;;5.50;4.30;;;5.30;51.80;;;;;;4900479;29;20466;-76
2020/12/27 10:44:26;;;;;;;7.63;4.47;;;5.40;51.70;;;;;;4900818;29;20593;-76
2020/12/27 10:46:53;;;;;;;7.10;4.63;;;5.40;51.50;;;;;;4900703;29;20545;-76
2020/12/27 10:49:21;;;;;;;6.43;3.93;;;5.40;51.50;;;;;;4900809;29;20458;-76
2020/12/27 10:51:48;;;;;;;6.07;3.87;;;5.50;51.40;;;;;;4893749;29;20449;-76
2020/12/27 10:54:14;;;;;;;5.13;4.57;;;5.50;51.10;;;;;;4900764;29;20477;-76
2020/12/27 10:56:44;;;;;;;12.63;4.93;;;5.50;51.10;;;;;;4900765;29;20458;-76
2020/12/27 10:59:11;;;;;;;4.73;4.20;;;5.50;51.10;;;;;;4900871;29;20468;-76
2020/12/27 11:01:42;;;;;;;4.80;4.30;;;5.50;50.60;;;;;;4900500;29;21083;-76
2020/12/27 11:04:09;;;;;;;6.17;4.40;;;5.50;50.40;;;;;;4899543;29;20491;-77
2020/12/27 11:06:35;;;;;;;5.50;4.07;;;5.50;50.30;;;;;;4897992;29;20463;-77
2020/12/27 11:09:02;;;;;;;5.17;4.40;;;5.50;50.40;;;;;;4900756;29;21002;-77
2020/12/27 11:11:29;;;;;;;5.50;5.00;;;5.60;50.70;;;;;;4900208;29;20463;-77
2020/12/27 11:13:56;;;;;;;5.80;5.23;;;5.60;50.70;;;;;;4900093;29;20465;-77
2020/12/27 11:16:23;;;;;;;4.90;4.47;;;5.70;50.70;;;;;;4900338;29;20466;-77
2020/12/27 11:18:49;;;;;;;5.80;3.97;;;5.70;50.50;;;;;;4900293;29;20462;-77
2020/12/27 11:21:16;;;;;;;5.20;4.70;;;5.70;50.20;;;;;;4900610;29;20459;-77
2020/12/27 11:23:42;;;;;;;7.43;5.87;;;5.60;50.60;;;;;;4899507;29;20541;-77
2020/12/27 11:26:09;;;;;;;5.10;4.53;;;5.50;51.00;;;;;;4900168;29;20788;-76
2020/12/27 11:28:36;;;;;;;5.93;4.80;;;5.60;51.40;;;;;;4900290;29;20458;-77
2020/12/27 11:31:03;;;;;;;5.33;4.67;;;5.60;51.30;;;;;;4900395;29;20469;-76
2020/12/27 11:33:30;;;;;;;5.97;5.47;;;5.50;51.10;;;;;;4897837;29;20478;-76
2020/12/27 11:35:56;;;;;;;7.07;5.07;;;5.50;51.50;;;;;;4899936;29;20470;-76
2020/12/27 11:38:23;;;;;;;6.07;5.50;;;5.50;51.90;;;;;;4899696;29;20870;-76
2020/12/27 11:40:49;;;;;;;9.10;5.60;;;5.50;51.80;;;;;;4899937;29;20461;-77
2020/12/27 11:43:16;;;;;;;6.73;5.63;;;5.50;51.90;;;;;;4899869;29;20493;-78
2020/12/27 11:45:42;;;;;;;6.60;5.40;;;5.50;51.90;;;;;;4899623;29;21018;-76
2020/12/27 11:48:10;;;;;;;6.73;6.10;;;5.50;52.10;;;;;;4900130;29;20470;-77
2020/12/27 11:50:36;;;;;;;8.00;5.50;;;5.60;52.10;;;;;;4899312;29;20458;-77
2020/12/27 11:53:03;;;;;;;5.60;4.83;;;5.60;52.10;;;;;;4899768;29;20478;-77
2020/12/27 11:55:29;;;;;;;7.63;5.77;;;5.60;52.20;;;;;;4899806;29;20875;-77
2020/12/27 11:57:56;;;;;;;5.60;5.10;;;5.60;52.40;;;;;;4899583;29;20466;-77
2020/12/27 12:00:22;;;;;;;6.13;5.23;;;5.60;52.40;;;;;;4897559;29;20470;-76
2020/12/27 12:02:49;;;;;;;6.30;5.63;;;5.70;52.40;;;;;;4899553;29;20593;-76
2020/12/27 12:05:16;;;;;;;6.97;5.00;;;5.80;52.40;;;;;;4899348;29;20467;-75
2020/12/27 12:07:42;;;;;;;5.73;5.33;;;5.80;52.10;;;;;;4899429;29;20470;-77
2020/12/27 12:10:09;;;;;;;6.93;6.27;;;5.70;52.40;;;;;;4899225;29;20465;-78
2020/12/27 12:12:35;;;;;;;6.00;4.60;;;5.70;52.50;;;;;;4899681;29;20456;-75
2020/12/27 12:15:02;;;;;;;8.97;6.57;;;5.60;53.10;;;;;;4899065;29;20834;-76
2020/12/27 12:17:28;;;;;;;7.03;6.37;;;5.60;53.10;;;;;;4898753;29;20970;-76
2020/12/27 12:19:55;;;;;;;7.60;5.27;;;5.60;53.00;;;;;;4899381;29;20463;-77
2020/12/27 12:22:22;;;;;;;6.80;5.83;;;5.60;53.10;;;;;;4899236;29;20467;-77
2020/12/27 12:24:49;;;;;;;7.03;5.97;;;5.70;53.20;;;;;;4898823;29;20495;-77
2020/12/27 12:27:15;;;;;;;6.20;5.70;;;5.70;53.00;;;;;;4897344;29;20462;-77
2020/12/27 12:29:42;;;;;;;8.77;4.93;;;5.70;53.20;;;;;;4899100;29;20463;-77
2020/12/27 12:32:09;;;;;;;6.10;5.53;;;5.70;53.20;;;;;;4899194;29;20472;-77
2020/12/27 12:34:35;;;;;;;6.13;5.40;;;5.80;53.30;;;;;;4899220;29;20456;-77
2020/12/27 12:37:02;;;;;;;8.87;5.97;;;5.80;53.20;;;;;;4898962;29;20502;-76
2020/12/27 12:39:29;;;;;;;8.67;7.87;;;5.80;53.10;;;;;;4899025;29;20523;-76
2020/12/27 12:41:57;;;;;;;6.70;5.97;;;5.80;53.10;;;;;;4898792;29;20475;-76
2020/12/27 12:44:24;;;;;;;8.47;6.47;;;5.80;53.30;;;;;;4897527;29;21022;-76
2020/12/27 12:46:51;;;;;;;6.20;5.70;;;5.80;53.70;;;;;;4898640;29;21048;-76
2020/12/27 12:49:17;;;;;;;6.63;5.77;;;5.80;53.70;;;;;;4898882;29;20513;-77
2020/12/27 12:51:44;;;;;;;5.90;5.30;;;5.80;53.70;;;;;;4898762;29;20544;-76
2020/12/27 12:54:10;;;;;;;5.87;5.27;;;5.80;53.80;;;;;;4895595;29;20471;-77
2020/12/27 12:56:38;;;;;;;8.77;6.03;;;5.90;54.00;;;;;;4891711;29;20984;-77
2020/12/27 12:59:04;;;;;;;7.23;6.53;;;6.00;54.00;;;;;;4898594;29;20467;-77
2020/12/27 13:01:32;;;;;;;10.77;5.60;;;6.00;54.00;;;;;;4898601;29;20467;-77
2020/12/27 13:03:58;;;;;;;7.27;6.00;;;6.10;54.00;;;;;;4898607;29;20839;-77
2020/12/27 13:06:25;;;;;;;5.10;4.70;;;6.00;53.60;;;;;;4898032;29;20464;-76